CG Katherine Walker — NKFW — position and weather

sailwx.info

Track history (hours):
 
Tides and Currents Weather Stations Pressure Air Temp Water Temp Dewpoint Dewpoint Depression Visibility Wind Speed Wind Dir Waves Ship Positions

CG Katherine Walker

Last reported at 2018-Feb-14 20:01 UTC. Time now 2018-Feb-18 01:40 UTC.
Position N 40°40' W 074°05'.

Length 53 m; draft 2.7 m.

Type: Law enforcement. MMSI: 368975000.

Date/timePositionNaut miles runAvg speedWind from/ knotsBaromVisibWave heightAir tempDewpointWater temp
2018-Feb-14 20:01N 40°40' W 074°05'0 1.4
2018-Feb-14 20:00N 40°40' W 074°05'4 8.9
2018-Feb-14 19:31N 40°36' W 074°03'510.2
2018-Feb-14 19:00N 40°31' W 074°03'4 5.7
2018-Feb-14 18:20N 40°27' W 074°02'1 2.1
2018-Feb-14 18:00N 40°28' W 074°03'0 0.0
2018-Feb-14 17:30N 40°28' W 074°03'0 0.6
2018-Feb-14 17:00N 40°28' W 074°03'0 0.0
2018-Feb-14 16:25N 40°28' W 074°03'0 0.2
2018-Feb-14 15:45N 40°28' W 074°03'0 0.3
2018-Feb-14 14:45N 40°28' W 074°03'0 0.0
2018-Feb-14 14:30N 40°28' W 074°03'1 1.1
2018-Feb-14 14:00N 40°28' W 074°02'0 0.9
2018-Feb-14 13:31N 40°28' W 074°03'6 0.3
2018-Feb-13 14:46N 40°34' W 074°01'311.9
2018-Feb-13 14:30N 40°37' W 074°03'4 0.2
2018-Feb-12 16:02N 40°40' W 074°05'0 3.3
2018-Feb-12 16:00N 40°40' W 074°05'4 9.0
2018-Feb-12 15:30N 40°36' W 074°02'3 5.4
2018-Feb-12 15:00N 40°34' W 074°01'0 0.0
2018-Feb-12 14:30N 40°34' W 074°01'0 0.1
2018-Feb-12 14:00N 40°34' W 074°01'510.1
2018-Feb-12 13:30N 40°39' W 074°03'  
2018-Feb-08 01:29N 40°40' W 074°05'0 0.0
2018-Feb-08 00:59N 40°40' W 074°05'0 0.0
2018-Feb-08 00:23N 40°40' W 074°05'0 0.0
2018-Feb-07 23:57N 40°40' W 074°05'0 0.0
2018-Feb-07 23:27N 40°40' W 074°05'0 0.0
2018-Feb-07 23:00N 40°40' W 074°05'0 0.0
2018-Feb-07 22:30N 40°40' W 074°05'0 0.0
2018-Feb-07 22:00N 40°40' W 074°05'0 0.0
2018-Feb-07 21:30N 40°40' W 074°05'0 0.0
2018-Feb-06 19:24N 40°40' W 074°05'3 3.1
2018-Feb-06 18:30N 40°39' W 074°08'0 0.0
2018-Feb-06 18:00N 40°39' W 074°08'0 0.3
2018-Feb-06 17:29N 40°39' W 074°08'0 0.2
2018-Feb-06 17:00N 40°38' W 074°08'1 1.4
2018-Feb-06 16:29N 40°39' W 074°09'0 0.0
2018-Feb-06 16:00N 40°39' W 074°09'1 1.1
2018-Feb-06 15:30N 40°39' W 074°09'0 0.0
2018-Feb-06 15:00N 40°39' W 074°09'0 0.9
2018-Feb-06 14:30N 40°39' W 074°09'3 0.2
2018-Feb-05 20:23N 40°40' W 074°05'1 3.9
2018-Feb-05 20:00N 40°39' W 074°06'2 4.3
2018-Feb-05 19:30N 40°39' W 074°08'0 0.0
2018-Feb-05 19:00N 40°39' W 074°08'0 0.7
2018-Feb-05 18:29N 40°39' W 074°08'0 0.0
2018-Feb-05 17:59N 40°39' W 074°08'6 4.2
2018-Feb-05 16:30N 40°35' W 074°01'0 0.0
2018-Feb-05 15:59N 40°35' W 074°01'0 0.0
2018-Feb-05 15:30N 40°35' W 074°01'0 0.0
2018-Feb-05 15:00N 40°35' W 074°01'5 9.7
2018-Feb-05 14:30N 40°40' W 074°03'1 0.4
2018-Feb-05 13:00N 40°40' W 074°04'  
Track history (hours):
 
Tides and Currents Weather Stations Pressure Air Temp Water Temp Dewpoint Dewpoint Depression Visibility Wind Speed Wind Dir Waves Ship Positions

CG Katherine Walker

Last reported at 2018-Feb-14 20:01 UTC. Time now 2018-Feb-18 01:40 UTC.
Position N 40°40' W 074°05'.

Length 53 m; draft 2.7 m.

Type: Law enforcement. MMSI: 368975000.

Date/timePositionNaut miles runAvg speedWind from/ knotsBaromVisibWave heightAir tempDewpointWater temp
2018-Feb-14 20:01N 40°40' W 074°05'0 1.4
2018-Feb-14 20:00N 40°40' W 074°05'4 8.9
2018-Feb-14 19:31N 40°36' W 074°03'510.2
2018-Feb-14 19:00N 40°31' W 074°03'4 5.7
2018-Feb-14 18:20N 40°27' W 074°02'1 2.1
2018-Feb-14 18:00N 40°28' W 074°03'0 0.0
2018-Feb-14 17:30N 40°28' W 074°03'0 0.6
2018-Feb-14 17:00N 40°28' W 074°03'0 0.0
2018-Feb-14 16:25N 40°28' W 074°03'0 0.2
2018-Feb-14 15:45N 40°28' W 074°03'0 0.3
2018-Feb-14 14:45N 40°28' W 074°03'0 0.0
2018-Feb-14 14:30N 40°28' W 074°03'1 1.1
2018-Feb-14 14:00N 40°28' W 074°02'0 0.9
2018-Feb-14 13:31N 40°28' W 074°03'6 0.3
2018-Feb-13 14:46N 40°34' W 074°01'311.9
2018-Feb-13 14:30N 40°37' W 074°03'4 0.2
2018-Feb-12 16:02N 40°40' W 074°05'0 3.3
2018-Feb-12 16:00N 40°40' W 074°05'4 9.0
2018-Feb-12 15:30N 40°36' W 074°02'3 5.4
2018-Feb-12 15:00N 40°34' W 074°01'0 0.0
2018-Feb-12 14:30N 40°34' W 074°01'0 0.1
2018-Feb-12 14:00N 40°34' W 074°01'510.1
2018-Feb-12 13:30N 40°39' W 074°03'  
2018-Feb-08 01:29N 40°40' W 074°05'0 0.0
2018-Feb-08 00:59N 40°40' W 074°05'0 0.0
2018-Feb-08 00:23N 40°40' W 074°05'0 0.0
2018-Feb-07 23:57N 40°40' W 074°05'0 0.0
2018-Feb-07 23:27N 40°40' W 074°05'0 0.0
2018-Feb-07 23:00N 40°40' W 074°05'0 0.0
2018-Feb-07 22:30N 40°40' W 074°05'0 0.0
2018-Feb-07 22:00N 40°40' W 074°05'0 0.0
2018-Feb-07 21:30N 40°40' W 074°05'0 0.0
2018-Feb-06 19:24N 40°40' W 074°05'3 3.1
2018-Feb-06 18:30N 40°39' W 074°08'0 0.0
2018-Feb-06 18:00N 40°39' W 074°08'0 0.3
2018-Feb-06 17:29N 40°39' W 074°08'0 0.2
2018-Feb-06 17:00N 40°38' W 074°08'1 1.4
2018-Feb-06 16:29N 40°39' W 074°09'0 0.0
2018-Feb-06 16:00N 40°39' W 074°09'1 1.1
2018-Feb-06 15:30N 40°39' W 074°09'0 0.0
2018-Feb-06 15:00N 40°39' W 074°09'0 0.9
2018-Feb-06 14:30N 40°39' W 074°09'3 0.2
2018-Feb-05 20:23N 40°40' W 074°05'1 3.9
2018-Feb-05 20:00N 40°39' W 074°06'2 4.3
2018-Feb-05 19:30N 40°39' W 074°08'0 0.0
2018-Feb-05 19:00N 40°39' W 074°08'0 0.7
2018-Feb-05 18:29N 40°39' W 074°08'0 0.0
2018-Feb-05 17:59N 40°39' W 074°08'6 4.2
2018-Feb-05 16:30N 40°35' W 074°01'0 0.0
2018-Feb-05 15:59N 40°35' W 074°01'0 0.0
2018-Feb-05 15:30N 40°35' W 074°01'0 0.0
2018-Feb-05 15:00N 40°35' W 074°01'5 9.7
2018-Feb-05 14:30N 40°40' W 074°03'1 0.4
2018-Feb-05 13:00N 40°40' W 074°04'  

Dump ship's entire track history